createdAt,value
2018-12-18T00:00:47.001Z,5.39
2018-12-18T00:01:49.523Z,5.36
2018-12-18T00:02:52.213Z,5.41
2018-12-18T00:03:54.703Z,5.41
2018-12-18T00:04:57.134Z,5.33
2018-12-18T00:05:59.595Z,5.31
2018-12-18T00:07:02.057Z,5.32
2018-12-18T00:08:04.609Z,5.43
2018-12-18T00:09:07.382Z,5.42
2018-12-18T00:10:10.000Z,5.40
2018-12-18T00:11:12.444Z,5.45
2018-12-18T00:12:14.922Z,5.41
2018-12-18T00:13:17.367Z,5.39
2018-12-18T00:14:19.826Z,5.39
2018-12-18T00:15:22.327Z,5.40
2018-12-18T00:16:24.763Z,5.40
2018-12-18T00:17:27.245Z,5.37
2018-12-18T00:18:29.708Z,5.37
2018-12-18T00:19:32.164Z,5.40
2018-12-18T00:20:34.607Z,5.41
2018-12-18T00:21:37.043Z,5.39
2018-12-18T00:22:39.485Z,5.38
2018-12-18T00:23:41.931Z,5.37
2018-12-18T00:24:44.374Z,5.40
2018-12-18T00:25:46.806Z,5.38
2018-12-18T00:26:49.237Z,5.41
2018-12-18T00:27:51.691Z,5.42
2018-12-18T00:28:54.171Z,5.46
2018-12-18T00:29:56.649Z,5.46
2018-12-18T00:30:59.083Z,5.51
2018-12-18T00:32:01.521Z,5.53
2018-12-18T00:33:04.123Z,5.54
2018-12-18T00:34:06.587Z,5.56
2018-12-18T00:35:09.025Z,5.54
2018-12-18T00:36:11.591Z,5.54
2018-12-18T00:37:14.027Z,5.54
2018-12-18T00:38:16.474Z,5.54
2018-12-18T00:39:19.057Z,5.56
2018-12-18T00:40:21.711Z,5.55
2018-12-18T00:41:24.146Z,5.54
2018-12-18T00:42:26.581Z,5.52
2018-12-18T00:43:29.027Z,5.55
2018-12-18T00:44:31.489Z,5.55
2018-12-18T00:45:33.926Z,5.54
2018-12-18T00:46:36.363Z,5.51
2018-12-18T00:47:38.802Z,5.54
2018-12-18T00:48:41.308Z,5.57
2018-12-18T00:49:43.827Z,5.58
2018-12-18T00:50:46.347Z,5.57
2018-12-18T00:51:48.893Z,5.59
2018-12-18T00:52:51.388Z,5.59
2018-12-18T00:53:53.839Z,5.58
2018-12-18T00:54:56.284Z,5.57
2018-12-18T00:55:58.731Z,5.57
2018-12-18T00:57:01.202Z,5.56
2018-12-18T00:58:03.640Z,5.55
2018-12-18T00:59:06.123Z,5.56
2018-12-18T01:00:09.353Z,5.55
2018-12-18T01:01:11.791Z,5.56
2018-12-18T01:02:14.223Z,5.55
2018-12-18T01:03:16.668Z,5.54
2018-12-18T01:04:19.126Z,5.53
2018-12-18T01:05:21.689Z,5.53
2018-12-18T01:06:24.112Z,5.53
2018-12-18T01:07:26.630Z,5.53
2018-12-18T01:08:29.059Z,5.53
2018-12-18T01:09:31.484Z,5.52
2018-12-18T01:10:33.944Z,5.53
2018-12-18T01:11:36.486Z,5.50
2018-12-18T01:12:38.933Z,5.49
2018-12-18T01:13:41.463Z,5.48
2018-12-18T01:14:43.984Z,5.48
2018-12-18T01:15:46.446Z,5.47
2018-12-18T01:16:48.887Z,5.45
2018-12-18T01:17:51.313Z,5.43
2018-12-18T01:18:53.750Z,5.41
2018-12-18T01:19:56.184Z,5.41
2018-12-18T01:20:58.631Z,5.40
2018-12-18T01:22:01.072Z,5.39
2018-12-18T01:23:03.506Z,5.42
2018-12-18T01:24:05.943Z,5.44
2018-12-18T01:25:08.383Z,5.44
2018-12-18T01:26:10.843Z,5.46
2018-12-18T01:27:13.280Z,5.47
2018-12-18T01:28:15.710Z,5.45
2018-12-18T01:29:18.143Z,5.41
2018-12-18T01:30:20.595Z,5.39
2018-12-18T01:31:23.036Z,5.37
2018-12-18T01:32:25.468Z,5.38
2018-12-18T01:33:27.898Z,5.39
2018-12-18T01:34:30.329Z,5.36
2018-12-18T01:35:32.790Z,5.34
2018-12-18T01:36:35.250Z,5.31
2018-12-18T01:37:37.696Z,5.28
2018-12-18T01:38:40.134Z,5.28
2018-12-18T01:39:42.568Z,5.29
2018-12-18T01:40:45.011Z,5.30
2018-12-18T01:41:47.475Z,5.28
2018-12-18T01:42:49.907Z,5.24
2018-12-18T01:43:52.350Z,5.27
2018-12-18T01:44:54.825Z,5.25
2018-12-18T01:45:57.268Z,5.21
2018-12-18T01:46:59.728Z,5.24
2018-12-18T01:48:02.193Z,5.22
2018-12-18T01:49:04.633Z,5.21
2018-12-18T01:50:07.242Z,5.18
2018-12-18T01:51:09.675Z,5.17
2018-12-18T01:52:12.126Z,5.16
2018-12-18T01:53:14.587Z,5.13
2018-12-18T01:54:17.047Z,5.12
2018-12-18T01:55:19.500Z,5.11
2018-12-18T01:56:21.956Z,5.11
2018-12-18T01:57:24.402Z,5.10
2018-12-18T01:58:26.828Z,5.08
2018-12-18T01:59:29.272Z,5.06
2018-12-18T02:00:31.712Z,5.04
2018-12-18T02:01:34.155Z,5.02
2018-12-18T02:02:36.615Z,5.02
2018-12-18T02:03:39.051Z,5.01
2018-12-18T02:04:41.483Z,5.01
2018-12-18T02:05:43.936Z,5.05
2018-12-18T02:06:46.393Z,5.05
2018-12-18T02:07:48.836Z,5.06
2018-12-18T02:08:51.272Z,5.03
2018-12-18T02:09:53.706Z,4.98
2018-12-18T02:10:56.147Z,4.96
2018-12-18T02:11:58.594Z,4.94
2018-12-18T02:13:01.036Z,4.91
2018-12-18T02:14:03.488Z,4.91
2018-12-18T02:15:06.226Z,4.93
2018-12-18T02:16:09.847Z,4.90
2018-12-18T02:17:12.309Z,4.86
2018-12-18T02:18:14.787Z,4.83
2018-12-18T02:19:17.228Z,4.80
2018-12-18T02:20:19.664Z,4.77
2018-12-18T02:21:22.615Z,4.75
2018-12-18T02:22:25.071Z,4.73
2018-12-18T02:23:27.614Z,4.70
2018-12-18T02:24:30.043Z,4.70
2018-12-18T02:25:32.480Z,4.71
2018-12-18T02:26:34.922Z,4.70
2018-12-18T02:27:37.386Z,4.70
2018-12-18T02:28:39.829Z,4.70
2018-12-18T02:29:42.278Z,4.69
2018-12-18T02:30:44.724Z,4.66
2018-12-18T02:31:47.190Z,4.64
2018-12-18T02:32:49.651Z,4.61
2018-12-18T02:33:52.090Z,4.62
2018-12-18T02:34:54.528Z,4.61
2018-12-18T02:35:56.960Z,4.61
2018-12-18T02:37:00.303Z,4.65
2018-12-18T02:38:02.774Z,4.64
2018-12-18T02:39:06.287Z,4.64
2018-12-18T02:40:08.716Z,4.64
2018-12-18T02:41:11.227Z,4.63
2018-12-18T02:42:13.663Z,4.62
2018-12-18T02:43:16.155Z,4.61
2018-12-18T02:44:18.644Z,4.61
2018-12-18T02:45:21.071Z,4.60
2018-12-18T02:46:23.535Z,4.61
2018-12-18T02:47:25.993Z,4.60
2018-12-18T02:48:28.628Z,4.59
2018-12-18T02:49:31.092Z,4.58
2018-12-18T02:50:33.523Z,4.56
2018-12-18T02:51:35.961Z,4.57
2018-12-18T02:52:39.204Z,4.61
2018-12-18T02:53:41.669Z,4.61
2018-12-18T02:54:44.153Z,4.59
2018-12-18T02:55:46.671Z,4.57
2018-12-18T02:56:49.109Z,4.58
2018-12-18T02:57:51.547Z,4.57
2018-12-18T02:58:54.022Z,4.58
2018-12-18T02:59:56.448Z,4.59
2018-12-18T03:00:58.893Z,4.59
2018-12-18T03:02:01.330Z,4.56
2018-12-18T03:03:03.863Z,4.54
2018-12-18T03:04:06.329Z,4.54
2018-12-18T03:05:08.769Z,4.53
2018-12-18T03:06:11.212Z,4.54
2018-12-18T03:07:13.657Z,4.55
2018-12-18T03:08:16.657Z,4.55
2018-12-18T03:09:19.198Z,4.55
2018-12-18T03:10:21.659Z,4.52
2018-12-18T03:11:24.089Z,4.54
2018-12-18T03:12:26.520Z,4.54
2018-12-18T03:13:28.971Z,4.56
2018-12-18T03:14:31.436Z,4.58
2018-12-18T03:15:34.014Z,4.60
2018-12-18T03:16:36.441Z,4.55
2018-12-18T03:17:38.887Z,4.52
2018-12-18T03:18:41.331Z,4.48
2018-12-18T03:19:43.785Z,4.45
2018-12-18T03:20:46.264Z,4.43
2018-12-18T03:21:48.692Z,4.43
2018-12-18T03:22:51.135Z,4.43
2018-12-18T03:23:53.764Z,4.44
2018-12-18T03:24:56.256Z,4.46
2018-12-18T03:25:58.683Z,4.46
2018-12-18T03:27:01.115Z,4.47
2018-12-18T03:28:03.570Z,4.45
2018-12-18T03:29:06.027Z,4.46
2018-12-18T03:30:08.466Z,4.44
2018-12-18T03:31:11.512Z,4.45
2018-12-18T03:32:14.655Z,4.45
2018-12-18T03:33:17.295Z,4.45
2018-12-18T03:34:19.770Z,4.48
2018-12-18T03:35:22.326Z,4.52
2018-12-18T03:36:24.890Z,4.50
2018-12-18T03:37:27.327Z,4.47
2018-12-18T03:38:29.772Z,4.46
2018-12-18T03:39:32.229Z,4.45
2018-12-18T03:40:34.660Z,4.43
2018-12-18T03:41:37.123Z,4.42
2018-12-18T03:42:39.574Z,4.42
2018-12-18T03:43:42.009Z,4.45
2018-12-18T03:44:44.612Z,4.47
2018-12-18T03:45:47.092Z,4.45
2018-12-18T03:46:49.561Z,4.45
2018-12-18T03:47:52.015Z,4.46
2018-12-18T03:48:54.459Z,4.49
2018-12-18T03:49:56.907Z,4.51
2018-12-18T03:50:59.358Z,4.53
2018-12-18T03:52:01.832Z,4.50
2018-12-18T03:53:04.273Z,4.49
2018-12-18T03:54:06.703Z,4.50
2018-12-18T03:55:09.281Z,4.52
2018-12-18T03:56:11.721Z,4.50
2018-12-18T03:57:14.188Z,4.53
2018-12-18T03:58:16.668Z,4.54
2018-12-18T03:59:19.109Z,4.54
2018-12-18T04:00:21.562Z,4.56
2018-12-18T04:01:24.015Z,4.59
2018-12-18T04:02:26.496Z,4.61
2018-12-18T04:03:28.931Z,4.61
2018-12-18T04:04:35.466Z,4.60
2018-12-18T04:05:35.863Z,4.62
2018-12-18T04:06:38.410Z,4.64
2018-12-18T04:07:40.863Z,4.64
2018-12-18T04:08:43.334Z,4.68
2018-12-18T04:09:46.095Z,4.69
2018-12-18T04:10:48.550Z,4.70
2018-12-18T04:11:56.715Z,4.72
2018-12-18T04:12:59.148Z,4.73
2018-12-18T04:14:01.594Z,4.72
2018-12-18T04:15:04.863Z,4.71
2018-12-18T04:16:07.331Z,4.73
2018-12-18T04:17:09.767Z,4.75
2018-12-18T04:18:12.220Z,4.77
2018-12-18T04:19:14.647Z,4.76
2018-12-18T04:20:17.086Z,4.73
2018-12-18T04:21:19.530Z,4.70
2018-12-18T04:22:22.112Z,4.65
2018-12-18T04:23:24.552Z,4.63
2018-12-18T04:24:27.001Z,4.65
2018-12-18T04:25:29.432Z,4.61
2018-12-18T04:26:31.887Z,4.61
2018-12-18T04:27:34.337Z,4.59
2018-12-18T04:28:36.784Z,4.62
2018-12-18T04:29:39.241Z,4.64
2018-12-18T04:30:41.722Z,4.68
2018-12-18T04:31:44.175Z,4.68
2018-12-18T04:32:46.623Z,4.71
2018-12-18T04:33:49.056Z,4.70
2018-12-18T04:34:51.480Z,4.71
2018-12-18T04:35:53.926Z,4.72
2018-12-18T04:36:56.384Z,4.73
2018-12-18T04:37:58.859Z,4.72
2018-12-18T04:39:01.291Z,4.71
2018-12-18T04:40:05.512Z,4.72
2018-12-18T04:41:07.951Z,4.72
2018-12-18T04:42:10.452Z,4.72
2018-12-18T04:43:12.920Z,4.73
2018-12-18T04:44:15.374Z,4.74
2018-12-18T04:45:17.805Z,4.73
2018-12-18T04:46:20.256Z,4.74
2018-12-18T04:47:22.706Z,4.73
2018-12-18T04:48:25.170Z,4.75
2018-12-18T04:49:27.699Z,4.72
2018-12-18T04:50:30.132Z,4.77
2018-12-18T04:51:32.567Z,4.76
2018-12-18T04:52:35.016Z,4.75
2018-12-18T04:53:37.463Z,4.77
2018-12-18T04:54:40.031Z,4.78
2018-12-18T04:55:42.491Z,4.78
2018-12-18T04:56:44.923Z,4.75
2018-12-18T04:57:47.400Z,4.74
2018-12-18T04:58:49.845Z,4.76
2018-12-18T04:59:52.310Z,4.80
2018-12-18T05:00:54.754Z,4.82
2018-12-18T05:01:57.205Z,4.82
2018-12-18T05:02:59.654Z,4.82
2018-12-18T05:04:02.107Z,4.82
2018-12-18T05:05:04.632Z,4.80
2018-12-18T05:06:07.063Z,4.80
2018-12-18T05:07:09.506Z,4.77
2018-12-18T05:08:11.954Z,4.70
2018-12-18T05:09:14.694Z,4.64
2018-12-18T05:10:17.465Z,4.64
2018-12-18T05:11:19.895Z,4.60
2018-12-18T05:12:22.336Z,4.52
2018-12-18T05:13:24.816Z,4.59
2018-12-18T05:14:27.267Z,4.62
2018-12-18T05:15:29.712Z,4.63
2018-12-18T05:16:32.151Z,4.65
2018-12-18T05:17:34.612Z,4.63
2018-12-18T05:18:37.202Z,4.61
2018-12-18T05:19:39.637Z,4.61
2018-12-18T05:20:42.071Z,4.60
2018-12-18T05:21:44.646Z,4.61
2018-12-18T05:22:47.095Z,4.60
2018-12-18T05:23:49.623Z,4.64
2018-12-18T05:24:52.085Z,4.55
2018-12-18T05:25:54.533Z,4.54
2018-12-18T05:26:56.965Z,4.55
2018-12-18T05:27:59.474Z,4.53
2018-12-18T05:29:01.944Z,4.48
2018-12-18T05:30:06.487Z,4.48
2018-12-18T05:31:08.945Z,4.46
2018-12-18T05:32:11.383Z,4.47
2018-12-18T05:33:13.857Z,4.47
2018-12-18T05:34:16.420Z,4.46
2018-12-18T05:35:18.908Z,4.47
2018-12-18T05:36:21.353Z,4.47
2018-12-18T05:37:23.799Z,4.44
2018-12-18T05:38:26.277Z,4.43
2018-12-18T05:39:28.805Z,4.43
2018-12-18T05:40:31.239Z,4.45
2018-12-18T05:41:33.683Z,4.46
2018-12-18T05:42:36.119Z,4.48
2018-12-18T05:43:38.581Z,4.47
2018-12-18T05:44:41.027Z,4.46
2018-12-18T05:45:43.512Z,4.45
2018-12-18T05:46:45.935Z,4.42
2018-12-18T05:47:48.370Z,4.41
2018-12-18T05:48:50.811Z,4.40
2018-12-18T05:49:53.388Z,4.41
2018-12-18T05:50:55.859Z,4.41
2018-12-18T05:51:58.300Z,4.42
2018-12-18T05:53:00.739Z,4.40
2018-12-18T05:54:03.319Z,4.41
2018-12-18T05:55:05.970Z,4.40
2018-12-18T05:56:08.536Z,4.39
2018-12-18T05:57:11.015Z,4.40
2018-12-18T05:58:13.447Z,4.38
2018-12-18T05:59:15.889Z,4.34
2018-12-18T06:00:18.353Z,4.31
2018-12-18T06:01:20.814Z,4.29
2018-12-18T06:02:23.273Z,4.29
2018-12-18T06:03:25.712Z,4.24
2018-12-18T06:04:28.151Z,4.23
2018-12-18T06:05:30.647Z,4.21
2018-12-18T06:06:33.097Z,4.23
2018-12-18T06:07:35.528Z,4.23
2018-12-18T06:08:38.022Z,4.24
2018-12-18T06:09:40.785Z,4.24
2018-12-18T06:10:44.099Z,4.22
2018-12-18T06:11:46.609Z,4.16
2018-12-18T06:12:49.084Z,4.16
2018-12-18T06:13:51.611Z,4.17
2018-12-18T06:14:54.198Z,4.18
2018-12-18T06:15:56.845Z,4.15
2018-12-18T06:18:12.256Z,4.07
2018-12-18T06:19:14.684Z,4.03
2018-12-18T06:20:17.126Z,4.11
2018-12-18T06:21:19.584Z,4.14
2018-12-18T06:22:22.110Z,4.18
2018-12-18T06:23:24.619Z,4.17
2018-12-18T06:24:27.089Z,4.14
2018-12-18T06:25:29.588Z,4.12
2018-12-18T06:26:32.207Z,4.11
2018-12-18T06:27:34.753Z,4.09
2018-12-18T06:28:37.213Z,4.08
2018-12-18T06:29:39.657Z,4.06
2018-12-18T06:30:42.158Z,4.07
2018-12-18T06:31:44.660Z,4.09
2018-12-18T06:32:47.108Z,4.05
2018-12-18T06:33:49.601Z,4.07
2018-12-18T06:34:52.078Z,4.06
2018-12-18T06:35:54.577Z,4.06
2018-12-18T06:36:57.097Z,4.07
2018-12-18T06:37:59.643Z,4.07
2018-12-18T06:39:02.154Z,4.06
2018-12-18T06:40:05.780Z,4.04
2018-12-18T06:41:08.233Z,4.05
2018-12-18T06:42:10.711Z,4.03
2018-12-18T06:43:13.174Z,4.05
2018-12-18T06:44:15.616Z,4.03
2018-12-18T06:45:18.062Z,4.03
2018-12-18T06:46:20.543Z,4.01
2018-12-18T06:47:22.989Z,3.99
2018-12-18T06:48:25.741Z,3.94
2018-12-18T06:49:28.337Z,3.94
2018-12-18T06:50:30.811Z,3.93
2018-12-18T06:51:33.259Z,3.93
2018-12-18T06:52:35.826Z,3.88
2018-12-18T06:53:38.374Z,3.89
2018-12-18T06:54:40.838Z,3.92
2018-12-18T06:55:43.327Z,3.89
2018-12-18T06:56:45.759Z,3.86
2018-12-18T06:57:48.231Z,3.85
2018-12-18T06:58:50.680Z,3.85
2018-12-18T06:59:53.167Z,3.86
2018-12-18T07:00:55.615Z,3.76
2018-12-18T07:01:58.059Z,3.74
2018-12-18T07:03:00.521Z,3.75
2018-12-18T07:04:03.123Z,3.75
2018-12-18T07:05:05.679Z,3.79
2018-12-18T07:06:08.150Z,3.80
2018-12-18T07:07:10.658Z,3.81
2018-12-18T07:08:13.235Z,3.58
2018-12-18T07:09:15.871Z,3.86
2018-12-18T07:10:19.655Z,3.87
2018-12-18T07:11:23.568Z,3.88
2018-12-18T07:12:26.168Z,3.89
2018-12-18T07:13:28.672Z,3.90
2018-12-18T07:14:31.463Z,3.89
2018-12-18T07:15:33.939Z,3.85
2018-12-18T07:16:36.419Z,3.88
2018-12-18T07:17:38.915Z,3.92
2018-12-18T07:18:41.527Z,3.96
2018-12-18T07:19:44.109Z,3.99
2018-12-18T07:20:46.740Z,4.00
2018-12-18T07:21:49.839Z,4.01
2018-12-18T07:22:52.478Z,4.00
2018-12-18T07:23:54.987Z,3.99
2018-12-18T07:24:57.542Z,3.99
2018-12-18T07:26:00.019Z,3.99
2018-12-18T07:27:02.461Z,3.99
2018-12-18T07:28:05.778Z,4.00
2018-12-18T07:29:11.648Z,3.97
2018-12-18T07:30:14.194Z,3.98
2018-12-18T07:31:16.685Z,3.98
2018-12-18T07:32:20.044Z,3.96
2018-12-18T07:33:23.308Z,3.97
2018-12-18T07:34:26.295Z,3.94
2018-12-18T07:35:32.399Z,3.95
2018-12-18T07:36:34.922Z,3.97
2018-12-18T07:37:37.714Z,3.97
2018-12-18T07:38:40.472Z,4.03
2018-12-18T07:39:44.533Z,4.01
2018-12-18T07:40:50.242Z,4.03
2018-12-18T07:41:57.431Z,4.05
2018-12-18T07:43:01.522Z,4.05
2018-12-18T07:44:04.185Z,4.04
2018-12-18T07:45:07.401Z,4.06
2018-12-18T07:46:09.948Z,4.10
2018-12-18T07:47:12.457Z,4.07
2018-12-18T07:48:15.008Z,4.06
2018-12-18T07:49:19.622Z,4.09
2018-12-18T07:50:23.582Z,4.09
2018-12-18T07:51:26.859Z,4.08
2018-12-18T07:52:29.349Z,4.08
2018-12-18T07:53:31.806Z,4.07
2018-12-18T07:54:35.132Z,4.06
2018-12-18T07:55:37.684Z,4.07
2018-12-18T07:56:40.190Z,4.07
2018-12-18T07:58:51.373Z,4.14
2018-12-18T07:59:53.832Z,4.06
2018-12-18T08:00:56.289Z,4.04
2018-12-18T08:01:58.799Z,4.04
2018-12-18T08:03:01.331Z,4.05
2018-12-18T08:04:03.869Z,4.07
2018-12-18T08:05:06.387Z,4.07
2018-12-18T08:06:08.847Z,4.09
2018-12-18T08:07:11.293Z,4.10
2018-12-18T08:08:13.719Z,4.09
2018-12-18T08:09:16.240Z,4.10
2018-12-18T08:10:18.670Z,4.09
2018-12-18T08:11:21.136Z,4.08
2018-12-18T08:12:25.373Z,4.09
2018-12-18T08:13:27.820Z,4.13
2018-12-18T08:14:30.280Z,4.16
2018-12-18T08:15:32.826Z,4.17
2018-12-18T08:16:35.279Z,4.13
2018-12-18T08:17:37.707Z,4.13
2018-12-18T08:18:40.147Z,4.17
2018-12-18T08:19:42.586Z,4.22
2018-12-18T08:20:46.243Z,4.21
2018-12-18T08:21:48.911Z,4.25
2018-12-18T08:22:51.380Z,4.28
2018-12-18T08:23:53.820Z,4.29
2018-12-18T08:24:56.361Z,4.30
2018-12-18T08:25:58.802Z,4.33
2018-12-18T08:27:01.325Z,4.36
2018-12-18T08:28:03.791Z,4.37
2018-12-18T08:29:06.215Z,4.38
2018-12-18T08:30:08.744Z,4.41
2018-12-18T08:31:11.176Z,4.42
2018-12-18T08:32:13.631Z,4.44
2018-12-18T08:33:16.181Z,4.44
2018-12-18T08:34:18.645Z,4.46
2018-12-18T08:35:21.090Z,4.49
2018-12-18T08:36:23.548Z,4.50
2018-12-18T08:37:26.012Z,4.50
2018-12-18T08:38:28.477Z,4.49
2018-12-18T08:39:30.905Z,4.50
2018-12-18T08:40:33.343Z,4.54
2018-12-18T08:41:35.793Z,4.58
2018-12-18T08:42:38.249Z,4.61
2018-12-18T08:43:40.728Z,4.59
2018-12-18T08:44:43.161Z,4.59
2018-12-18T08:45:45.678Z,4.63
2018-12-18T08:46:48.132Z,4.68
2018-12-18T08:47:50.720Z,4.70
2018-12-18T08:48:53.215Z,4.66
2018-12-18T08:49:55.645Z,4.66
2018-12-18T08:50:58.104Z,4.66
2018-12-18T08:52:00.545Z,4.69
2018-12-18T08:53:03.087Z,4.71
2018-12-18T08:54:05.547Z,4.78
2018-12-18T08:55:08.067Z,4.75
2018-12-18T08:56:10.509Z,4.75
2018-12-18T08:57:13.023Z,4.75
2018-12-18T08:58:15.555Z,4.77
2018-12-18T08:59:18.008Z,4.78
2018-12-18T09:00:20.568Z,4.81
2018-12-18T09:01:23.012Z,4.84
2018-12-18T09:02:25.464Z,4.88
2018-12-18T09:03:27.924Z,4.94
2018-12-18T09:04:30.384Z,4.98
2018-12-18T09:05:32.821Z,5.02
2018-12-18T09:06:35.264Z,5.02
2018-12-18T09:07:37.703Z,5.03
2018-12-18T09:08:40.160Z,5.06
2018-12-18T09:09:42.622Z,5.10
2018-12-18T09:10:45.082Z,5.10
2018-12-18T09:11:47.520Z,5.13
2018-12-18T09:12:49.948Z,5.15
2018-12-18T09:13:52.392Z,5.15
2018-12-18T09:14:56.644Z,5.18
2018-12-18T09:15:59.103Z,5.21
2018-12-18T09:17:02.786Z,5.21
2018-12-18T09:18:05.227Z,5.24
2018-12-18T09:19:07.675Z,5.26
2018-12-18T09:20:10.133Z,5.27
2018-12-18T09:21:12.641Z,5.28
2018-12-18T09:22:15.074Z,5.36
2018-12-18T09:23:17.507Z,5.35
2018-12-18T09:24:19.960Z,5.35
2018-12-18T09:25:22.493Z,5.34
2018-12-18T09:26:24.930Z,5.33
2018-12-18T09:27:27.391Z,5.37
2018-12-18T09:28:29.837Z,5.39
2018-12-18T09:29:33.017Z,5.42
2018-12-18T09:30:35.709Z,5.43
2018-12-18T09:31:39.931Z,5.49
2018-12-18T09:32:42.375Z,5.50
2018-12-18T09:33:44.820Z,5.48
2018-12-18T09:34:47.481Z,5.49
2018-12-18T09:35:50.033Z,5.50
2018-12-18T09:36:52.581Z,5.51
2018-12-18T09:39:36.609Z,5.59
2018-12-18T09:40:44.842Z,5.61
2018-12-18T09:41:47.283Z,5.65
2018-12-18T09:42:55.323Z,5.67
2018-12-18T09:43:59.749Z,5.73
2018-12-18T09:45:02.357Z,5.75
2018-12-18T09:46:04.843Z,5.79
2018-12-18T09:47:07.471Z,5.81
2018-12-18T09:48:09.905Z,5.79
2018-12-18T09:49:12.339Z,5.79
2018-12-18T09:50:14.800Z,5.84
2018-12-18T09:51:17.418Z,5.90
2018-12-18T09:52:19.887Z,5.91
2018-12-18T09:53:22.319Z,5.89
2018-12-18T09:54:24.763Z,5.90
2018-12-18T09:55:27.249Z,5.90
2018-12-18T09:56:31.766Z,5.93
2018-12-18T09:57:40.058Z,5.97
2018-12-18T09:58:42.534Z,6.03
2018-12-18T09:59:45.086Z,6.09
2018-12-18T10:00:47.584Z,6.13
2018-12-18T10:01:50.097Z,6.16
2018-12-18T10:02:52.546Z,6.15
2018-12-18T10:03:55.114Z,6.13
2018-12-18T10:04:57.616Z,6.16
2018-12-18T10:06:00.129Z,6.19
2018-12-18T10:07:02.596Z,6.20
2018-12-18T10:08:05.087Z,6.22
2018-12-18T10:09:09.791Z,6.24
2018-12-18T10:10:12.187Z,6.30
2018-12-18T10:11:14.798Z,6.30
2018-12-18T10:12:19.693Z,6.34
2018-12-18T10:13:22.147Z,6.42
2018-12-18T10:14:24.631Z,6.46
2018-12-18T10:15:27.302Z,6.49
2018-12-18T10:16:29.742Z,6.52
2018-12-18T10:17:32.215Z,6.56
2018-12-18T10:18:34.827Z,6.58
2018-12-18T10:19:37.366Z,6.54
2018-12-18T10:20:39.917Z,6.51
2018-12-18T10:21:42.365Z,6.46
2018-12-18T10:22:44.828Z,6.46
2018-12-18T10:23:47.277Z,6.46
2018-12-18T10:24:49.706Z,6.46
2018-12-18T10:25:52.152Z,6.52
2018-12-18T10:26:54.579Z,6.55
2018-12-18T10:27:57.047Z,6.59
2018-12-18T10:28:59.484Z,6.65
2018-12-18T10:30:01.945Z,6.68
2018-12-18T10:31:04.426Z,6.72
2018-12-18T10:32:06.912Z,6.74
2018-12-18T10:33:09.446Z,6.84
2018-12-18T10:34:11.909Z,6.92
2018-12-18T10:35:14.471Z,6.98
2018-12-18T10:36:16.952Z,7.00
2018-12-18T10:37:20.083Z,7.03
2018-12-18T10:38:22.536Z,7.08
2018-12-18T10:39:25.004Z,7.13
2018-12-18T10:40:27.439Z,7.12
2018-12-18T10:41:29.867Z,7.15
2018-12-18T10:42:32.308Z,7.21
2018-12-18T10:43:34.757Z,7.28
2018-12-18T10:44:37.210Z,7.33
2018-12-18T10:45:39.660Z,7.40
2018-12-18T10:46:42.115Z,7.45
2018-12-18T10:47:44.546Z,7.50
2018-12-18T10:48:47.020Z,7.54
2018-12-18T10:49:49.456Z,7.51
2018-12-18T10:50:51.888Z,7.54
2018-12-18T10:51:54.323Z,7.55
2018-12-18T10:52:56.908Z,7.60
2018-12-18T10:53:59.355Z,7.67
2018-12-18T10:55:01.846Z,7.72
2018-12-18T10:56:04.289Z,7.86
2018-12-18T10:57:06.752Z,8.11
2018-12-18T10:58:09.199Z,8.43
2018-12-18T10:59:11.662Z,8.67
2018-12-18T11:00:16.115Z,8.87
2018-12-18T11:02:51.308Z,9.34
2018-12-18T11:03:53.736Z,9.38
2018-12-18T11:04:56.181Z,9.45
2018-12-18T11:05:58.619Z,9.44
2018-12-18T11:07:01.073Z,9.42
2018-12-18T11:08:03.524Z,9.38
2018-12-18T11:09:08.475Z,9.36
2018-12-18T11:10:10.924Z,9.34
2018-12-18T11:11:13.426Z,9.34
2018-12-18T11:12:17.850Z,9.35
2018-12-18T11:13:20.299Z,9.33
2018-12-18T11:14:22.730Z,9.28
2018-12-18T11:15:25.184Z,9.26
2018-12-18T11:16:27.626Z,9.28
2018-12-18T11:17:30.068Z,9.29
2018-12-18T11:18:32.525Z,9.24
2018-12-18T11:19:34.982Z,9.21
2018-12-18T11:20:37.447Z,9.18
2018-12-18T11:21:39.886Z,9.14
2018-12-18T11:22:42.323Z,9.19
2018-12-18T11:23:44.763Z,9.24
2018-12-18T11:24:47.263Z,9.25
2018-12-18T11:25:49.754Z,9.25
2018-12-18T11:26:52.719Z,9.28
2018-12-18T11:27:55.399Z,9.34
2018-12-18T11:28:57.930Z,9.39
2018-12-18T11:30:00.377Z,9.40
2018-12-18T11:31:02.825Z,9.42
2018-12-18T11:32:05.303Z,9.48
2018-12-18T11:33:07.765Z,9.54
2018-12-18T11:34:10.211Z,9.57
2018-12-18T11:35:12.664Z,9.61
2018-12-18T11:36:16.714Z,9.58
2018-12-18T11:37:19.567Z,9.54
2018-12-18T11:38:22.124Z,9.48
2018-12-18T11:39:24.577Z,9.50
2018-12-18T11:40:27.025Z,9.53
2018-12-18T11:41:29.491Z,9.58
2018-12-18T11:42:31.966Z,9.64
2018-12-18T11:43:34.439Z,9.74
2018-12-18T11:44:37.353Z,9.85
2018-12-18T11:45:39.808Z,9.97
2018-12-18T11:46:42.288Z,10.08
2018-12-18T11:47:44.745Z,10.19
2018-12-18T11:48:47.199Z,10.27
2018-12-18T11:49:49.649Z,10.37
2018-12-18T11:50:52.120Z,10.48
2018-12-18T11:51:54.611Z,10.52
2018-12-18T11:52:57.079Z,10.59
2018-12-18T11:53:59.551Z,10.63
2018-12-18T11:55:02.021Z,10.68
2018-12-18T11:56:04.679Z,10.79
2018-12-18T11:57:07.180Z,10.86
2018-12-18T11:58:09.628Z,10.86
2018-12-18T11:59:12.077Z,10.96
2018-12-18T12:00:16.070Z,11.02
2018-12-18T12:01:18.517Z,11.04
2018-12-18T12:02:21.014Z,11.05
2018-12-18T12:03:23.489Z,10.98
2018-12-18T12:04:25.973Z,10.93
2018-12-18T12:05:28.427Z,10.88
2018-12-18T12:06:30.900Z,10.74
2018-12-18T12:07:33.355Z,10.71
2018-12-18T12:08:35.818Z,10.71
2018-12-18T12:09:38.290Z,10.71
2018-12-18T12:10:42.216Z,10.71
2018-12-18T12:11:45.735Z,10.73
2018-12-18T12:12:48.259Z,10.74
2018-12-18T12:13:50.931Z,10.69
2018-12-18T12:14:53.571Z,10.65
2018-12-18T12:15:56.070Z,10.59
2018-12-18T12:16:58.545Z,10.54
2018-12-18T12:18:01.235Z,10.51
2018-12-18T12:19:03.706Z,10.44
2018-12-18T12:20:06.590Z,10.36
2018-12-18T12:21:09.032Z,10.28
2018-12-18T12:22:11.524Z,10.28
2018-12-18T12:23:14.013Z,10.22
2018-12-18T12:24:16.467Z,10.17
2018-12-18T12:25:18.913Z,10.06
2018-12-18T12:26:27.164Z,10.00
2018-12-18T12:27:35.712Z,9.95
2018-12-18T12:28:38.242Z,9.93
2018-12-18T12:29:40.715Z,9.96
2018-12-18T12:30:43.191Z,9.98
2018-12-18T12:31:45.646Z,9.94
2018-12-18T12:32:48.124Z,9.90
2018-12-18T12:33:50.608Z,9.91
2018-12-18T12:34:53.125Z,9.92
2018-12-18T12:35:55.579Z,9.87
2018-12-18T12:36:58.006Z,9.88
2018-12-18T12:38:00.443Z,9.86
2018-12-18T12:39:03.915Z,9.88
2018-12-18T12:40:07.128Z,9.87
2018-12-18T12:41:09.571Z,9.92
2018-12-18T12:42:12.043Z,9.94
2018-12-18T12:43:14.496Z,10.00
2018-12-18T12:44:16.967Z,9.97
2018-12-18T12:45:19.473Z,10.13
2018-12-18T12:46:21.951Z,10.15
2018-12-18T12:47:24.410Z,10.23
2018-12-18T12:48:28.877Z,10.24
2018-12-18T12:49:37.000Z,10.28
2018-12-18T12:50:39.485Z,10.31
2018-12-18T12:51:41.945Z,10.29
2018-12-18T12:52:44.529Z,10.36
2018-12-18T12:53:47.075Z,10.36
2018-12-18T12:54:49.616Z,10.36
2018-12-18T12:55:52.588Z,10.35
2018-12-18T12:56:55.551Z,10.30
2018-12-18T12:57:58.196Z,10.31
2018-12-18T12:59:00.669Z,10.28
2018-12-18T13:00:03.303Z,10.26
2018-12-18T13:01:05.746Z,10.22
2018-12-18T13:02:08.219Z,10.19
2018-12-18T13:03:10.701Z,10.10
2018-12-18T13:04:13.174Z,10.08
2018-12-18T13:05:15.664Z,10.05
2018-12-18T13:06:18.139Z,10.08
2018-12-18T13:07:20.598Z,10.02
2018-12-18T13:08:23.077Z,10.01
2018-12-18T13:09:25.554Z,9.90
2018-12-18T13:10:28.035Z,9.87
2018-12-18T13:11:30.510Z,9.86
2018-12-18T13:12:33.062Z,9.85
2018-12-18T13:13:35.507Z,9.83
2018-12-18T13:14:37.990Z,9.72
2018-12-18T13:15:40.475Z,9.66
2018-12-18T13:16:43.000Z,9.62
2018-12-18T13:17:45.562Z,9.60
2018-12-18T13:18:48.043Z,9.59
2018-12-18T13:19:50.515Z,9.53
2018-12-18T13:20:53.114Z,9.38
2018-12-18T13:21:55.675Z,9.33
2018-12-18T13:22:58.115Z,9.27
2018-12-18T13:24:00.601Z,9.22
2018-12-18T13:25:03.334Z,9.17
2018-12-18T13:26:05.900Z,9.05
2018-12-18T13:27:08.364Z,9.00
2018-12-18T13:28:11.839Z,8.96
2018-12-18T13:29:14.283Z,8.90
2018-12-18T13:30:16.718Z,8.85
2018-12-18T13:31:19.314Z,8.84
2018-12-18T13:32:21.779Z,8.86
2018-12-18T13:33:24.231Z,8.84
2018-12-18T13:34:26.688Z,8.87
2018-12-18T13:35:29.167Z,8.82
2018-12-18T13:36:31.631Z,8.81
2018-12-18T13:37:34.311Z,8.75
2018-12-18T13:38:36.770Z,8.72
2018-12-18T13:39:39.268Z,8.62
2018-12-18T13:40:41.742Z,8.59
2018-12-18T13:41:44.196Z,8.55
2018-12-18T13:42:46.661Z,8.56
2018-12-18T13:43:49.116Z,8.54
2018-12-18T13:44:51.745Z,8.57
2018-12-18T13:45:54.188Z,8.54
2018-12-18T13:46:56.710Z,8.47
2018-12-18T13:47:59.196Z,8.43
2018-12-18T13:49:01.658Z,8.42
2018-12-18T13:50:05.512Z,8.42
2018-12-18T13:51:08.085Z,8.40
2018-12-18T13:52:10.802Z,8.40
2018-12-18T13:53:13.301Z,8.44
2018-12-18T13:54:15.806Z,8.43
2018-12-18T13:55:18.253Z,8.40
2018-12-18T13:56:20.725Z,8.32
2018-12-18T13:57:23.203Z,8.19